Time;durP1;ratioP1;P1;durP2;ratioP2;P2;SDS_P1;SDS_P2;PMS_P1;PMS_P2;Temp;Humidity;BMP_temperature;BMP_pressure;BME280_temperature;BME280_humidity;BME280_pressure;Samples;Min_cycle;Max_cycle;Signal;HPM_P1;HPM_P2
2024/01/04 00:01:18;;;;;;;7.55;2.45;;;12.70;54.90;;;;;;5008838;28;20407;-62
2024/01/04 00:03:47;;;;;;;4.82;2.45;;;12.90;54.20;;;;;;5013036;28;20070;-63
2024/01/04 00:06:17;;;;;;;6.28;2.00;;;13.00;54.20;;;;;;5008580;28;20064;-62
2024/01/04 00:08:46;;;;;;;21.90;5.75;;;13.10;54.20;;;;;;5011831;28;20459;-62
2024/01/04 00:11:14;;;;;;;13.48;2.80;;;13.30;54.00;;;;;;5016211;28;20693;-63
2024/01/04 00:13:43;;;;;;;7.15;2.22;;;13.40;53.80;;;;;;5016958;28;20136;-64
2024/01/04 00:16:11;;;;;;;18.85;3.25;;;13.50;53.80;;;;;;5024697;28;20053;-62
2024/01/04 00:18:41;;;;;;;6.70;3.10;;;13.50;53.50;;;;;;5009839;28;21713;-63
2024/01/04 00:21:13;;;;;;;8.13;2.40;;;13.60;53.30;;;;;;5005677;28;20060;-63
2024/01/04 00:23:42;;;;;;;8.98;3.05;;;13.50;53.20;;;;;;5013298;28;20067;-60
2024/01/04 00:26:10;;;;;;;5.65;2.53;;;13.40;53.10;;;;;;5011627;28;20562;-63
2024/01/04 00:28:39;;;;;;;11.93;2.63;;;13.30;53.20;;;;;;5018858;28;20996;-64
2024/01/04 00:31:07;;;;;;;9.90;3.35;;;13.20;53.30;;;;;;5014477;28;20062;-63
2024/01/04 00:33:38;;;;;;;6.25;2.88;;;13.20;53.30;;;;;;5021897;28;20515;-63
2024/01/04 00:36:09;;;;;;;8.18;3.03;;;13.10;53.30;;;;;;5016465;28;20053;-62
2024/01/04 00:38:38;;;;;;;10.30;3.70;;;13.00;53.20;;;;;;5009493;28;21721;-63
2024/01/04 00:41:07;;;;;;;10.48;3.10;;;12.90;53.20;;;;;;5019979;28;20080;-63
2024/01/04 00:43:37;;;;;;;4.65;2.85;;;12.80;53.30;;;;;;5007370;28;20054;-63
2024/01/04 00:46:05;;;;;;;7.40;3.08;;;12.80;53.40;;;;;;5020978;28;20093;-64
2024/01/04 00:48:33;;;;;;;12.60;3.50;;;12.80;53.40;;;;;;5009129;28;20240;-63
2024/01/04 00:51:02;;;;;;;6.15;2.90;;;12.80;53.40;;;;;;5019429;28;20384;-62
2024/01/04 00:53:31;;;;;;;7.90;2.72;;;12.90;53.40;;;;;;5027076;28;20052;-61
2024/01/04 00:56:00;;;;;;;10.43;4.00;;;12.90;53.40;;;;;;5000822;28;20092;-62
2024/01/04 00:58:28;;;;;;;13.35;3.20;;;12.90;53.40;;;;;;5009493;28;20041;-62
2024/01/04 01:00:57;;;;;;;6.28;2.78;;;12.90;54.00;;;;;;5027328;28;20808;-62
2024/01/04 01:03:26;;;;;;;6.43;2.95;;;12.90;53.30;;;;;;5006795;28;20571;-61
2024/01/04 01:05:55;;;;;;;5.03;3.03;;;12.90;53.30;;;;;;5016523;28;20089;-63
2024/01/04 01:08:24;;;;;;;7.10;3.00;;;12.90;53.30;;;;;;5015218;28;20064;-62
2024/01/04 01:10:54;;;;;;;6.45;3.33;;;12.80;53.30;;;;;;5019972;28;21795;-62
2024/01/04 01:13:22;;;;;;;7.97;3.17;;;12.80;53.40;;;;;;5023445;28;20080;-63
2024/01/04 01:15:50;;;;;;;10.15;3.25;;;12.80;53.40;;;;;;5012046;28;20131;-62
2024/01/04 01:18:19;;;;;;;8.30;3.80;;;12.90;53.40;;;;;;5005600;28;20380;-62
2024/01/04 01:20:47;;;;;;;8.45;3.35;;;12.80;53.30;;;;;;5029691;28;20136;-63
2024/01/04 01:23:16;;;;;;;10.38;3.40;;;12.80;53.30;;;;;;5010895;28;20065;-63
2024/01/04 01:25:44;;;;;;;8.35;2.95;;;12.80;53.40;;;;;;5019793;28;20061;-63
2024/01/04 01:28:14;;;;;;;8.60;3.28;;;12.80;53.40;;;;;;5022392;28;20385;-63
2024/01/04 01:30:45;;;;;;;7.63;2.83;;;12.80;53.30;;;;;;5009925;28;20057;-63
2024/01/04 01:33:13;;;;;;;7.80;3.70;;;12.70;53.20;;;;;;5017063;28;20053;-64
2024/01/04 01:35:42;;;;;;;14.45;4.72;;;12.70;53.20;;;;;;5028565;28;20519;-62
2024/01/04 01:38:10;;;;;;;7.75;2.90;;;12.60;53.30;;;;;;5017445;28;20490;-62
2024/01/04 01:40:39;;;;;;;9.60;3.15;;;12.50;53.30;;;;;;5020931;28;22112;-63
2024/01/04 01:43:07;;;;;;;8.68;3.22;;;12.40;53.20;;;;;;5005879;28;20077;-63
2024/01/04 01:45:37;;;;;;;4.97;2.80;;;12.30;53.30;;;;;;5033764;28;20054;-62
2024/01/04 01:48:08;;;;;;;8.80;3.30;;;12.20;53.40;;;;;;5022930;28;20483;-65
2024/01/04 01:50:37;;;;;;;12.68;3.47;;;12.10;53.40;;;;;;5012021;28;20084;-62
2024/01/04 01:53:05;;;;;;;11.70;3.78;;;12.00;53.40;;;;;;5026820;28;20045;-62
2024/01/04 01:55:34;;;;;;;7.65;2.83;;;11.90;53.50;;;;;;5012580;28;20053;-61
2024/01/04 01:58:03;;;;;;;5.38;2.47;;;11.80;53.50;;;;;;5011575;28;20059;-62
2024/01/04 02:00:33;;;;;;;7.25;2.67;;;11.60;53.50;;;;;;5010327;28;20111;-62
2024/01/04 02:03:04;;;;;;;9.82;3.58;;;11.50;53.60;;;;;;5011216;28;20112;-62
2024/01/04 02:05:33;;;;;;;13.73;3.38;;;11.40;53.70;;;;;;5023107;28;20671;-63
2024/01/04 02:08:02;;;;;;;9.10;2.90;;;11.40;53.80;;;;;;5009042;28;20175;-63
2024/01/04 02:10:31;;;;;;;8.70;2.55;;;11.30;53.90;;;;;;5008199;28;20112;-61
2024/01/04 02:12:59;;;;;;;7.32;2.80;;;11.30;54.00;;;;;;5017597;28;20628;-63
2024/01/04 02:15:28;;;;;;;4.30;2.30;;;11.30;54.00;;;;;;5009557;28;20488;-62
2024/01/04 02:17:56;;;;;;;8.52;2.72;;;11.30;54.10;;;;;;5019633;28;20140;-63
2024/01/04 02:20:26;;;;;;;8.90;2.95;;;11.20;54.10;;;;;;5007050;28;20128;-63
2024/01/04 02:22:55;;;;;;;8.45;3.60;;;11.20;54.30;;;;;;5018167;28;20056;-63
2024/01/04 02:25:24;;;;;;;27.67;7.15;;;11.30;54.40;;;;;;5013628;28;20054;-63
2024/01/04 02:27:52;;;;;;;6.70;2.92;;;11.30;54.40;;;;;;5010798;28;20514;-62
2024/01/04 02:30:20;;;;;;;9.18;2.35;;;11.40;54.30;;;;;;4997377;28;20555;-62
2024/01/04 02:32:49;;;;;;;190.35;34.65;;;11.50;54.20;;;;;;5034945;28;20156;-62
2024/01/04 02:35:17;;;;;;;8.40;3.22;;;11.50;54.10;;;;;;5013709;28;20073;-63
2024/01/04 02:37:45;;;;;;;10.80;3.15;;;11.60;54.20;;;;;;5007119;28;20144;-63
2024/01/04 02:40:16;;;;;;;21.40;5.45;;;11.60;54.20;;;;;;5011432;28;20476;-64
2024/01/04 02:42:44;;;;;;;25.25;5.20;;;11.60;54.00;;;;;;5012563;28;20068;-62
2024/01/04 02:45:14;;;;;;;6.32;2.63;;;11.70;54.10;;;;;;5020917;28;20065;-64
2024/01/04 02:47:43;;;;;;;7.03;3.10;;;11.80;54.20;;;;;;5019994;28;20153;-64
2024/01/04 02:50:13;;;;;;;7.47;2.60;;;11.90;54.00;;;;;;5022133;28;20062;-62
2024/01/04 02:52:41;;;;;;;7.90;3.47;;;11.80;53.90;;;;;;5005096;28;20735;-62
2024/01/04 02:55:09;;;;;;;9.30;3.15;;;11.90;53.90;;;;;;5019660;28;20055;-63
2024/01/04 02:57:39;;;;;;;7.60;2.60;;;11.90;53.80;;;;;;5019834;28;20071;-63
2024/01/04 03:00:08;;;;;;;6.78;2.88;;;11.90;54.50;;;;;;5017729;28;20057;-63
2024/01/04 03:02:37;;;;;;;4.80;2.58;;;11.90;53.90;;;;;;5011133;28;20974;-63
2024/01/04 03:05:06;;;;;;;5.53;1.70;;;11.90;53.90;;;;;;5010548;28;20610;-64
2024/01/04 03:07:34;;;;;;;4.22;1.90;;;12.00;54.10;;;;;;5019795;28;20060;-63
2024/01/04 03:10:02;;;;;;;2.08;1.10;;;12.00;54.10;;;;;;5037708;28;20049;-63
2024/01/04 03:12:31;;;;;;;4.05;1.02;;;12.20;54.20;;;;;;5008835;28;20046;-62
2024/01/04 03:15:00;;;;;;;2.05;1.30;;;12.30;54.10;;;;;;5023339;28;20065;-63
2024/01/04 03:17:29;;;;;;;1.20;1.10;;;12.50;54.70;;;;;;5021477;28;20107;-64
2024/01/04 03:19:57;;;;;;;4.90;1.00;;;12.70;54.10;;;;;;5019045;28;20064;-64
2024/01/04 03:22:25;;;;;;;2.08;1.50;;;12.80;53.90;;;;;;5009530;28;20050;-63
2024/01/04 03:24:53;;;;;;;4.72;2.10;;;12.90;54.30;;;;;;5023914;28;20052;-64
2024/01/04 03:27:22;;;;;;;3.85;1.83;;;12.90;53.40;;;;;;5018890;28;20057;-62
2024/01/04 03:29:52;;;;;;;7.47;2.72;;;12.90;53.40;;;;;;5015804;28;20563;-61
2024/01/04 03:32:22;;;;;;;8.90;2.03;;;13.00;53.30;;;;;;5013406;28;20049;-62
2024/01/04 03:34:50;;;;;;;8.13;2.20;;;13.00;53.20;;;;;;5014594;28;20053;-63
2024/01/04 03:37:19;;;;;;;8.05;1.88;;;13.10;53.10;;;;;;5029829;28;20503;-63
2024/01/04 03:39:47;;;;;;;6.30;1.90;;;13.00;53.00;;;;;;5018881;28;20136;-64
2024/01/04 03:42:15;;;;;;;1.80;1.30;;;13.10;53.10;;;;;;5025795;28;20065;-61
2024/01/04 03:44:44;;;;;;;2.70;1.30;;;13.00;53.10;;;;;;5014848;28;20053;-63
2024/01/04 03:47:12;;;;;;;4.55;2.00;;;13.00;53.20;;;;;;5010415;28;20491;-64
2024/01/04 03:49:42;;;;;;;4.43;1.98;;;13.10;53.30;;;;;;5015901;28;20073;-62
2024/01/04 03:52:10;;;;;;;2.63;1.50;;;13.10;53.20;;;;;;5013717;28;20045;-63
2024/01/04 03:54:38;;;;;;;12.10;2.20;;;13.20;53.10;;;;;;5003302;28;20874;-62
2024/01/04 03:57:06;;;;;;;15.93;4.30;;;13.20;53.10;;;;;;5007317;28;20049;-62
2024/01/04 03:59:37;;;;;;;33.28;4.78;;;13.20;53.00;;;;;;5014061;28;20491;-63
2024/01/04 04:02:05;;;;;;;8.00;2.05;;;13.30;53.60;;;;;;5015169;28;20049;-64
2024/01/04 04:04:33;;;;;;;7.95;2.92;;;13.40;52.90;;;;;;5004173;28;20084;-62
2024/01/04 04:07:03;;;;;;;4.13;2.13;;;13.40;52.80;;;;;;5015515;28;20050;-67
2024/01/04 04:09:32;;;;;;;9.35;2.50;;;13.40;52.60;;;;;;5021447;28;20057;-63
2024/01/04 04:12:00;;;;;;;7.65;2.45;;;13.30;52.60;;;;;;5009955;28;20423;-62
2024/01/04 04:14:28;;;;;;;14.93;3.00;;;13.30;52.60;;;;;;5014515;28;20059;-62
2024/01/04 04:16:56;;;;;;;10.07;3.10;;;13.30;52.60;;;;;;5012752;28;20057;-63
2024/01/04 04:19:25;;;;;;;13.02;2.80;;;13.30;52.60;;;;;;5020671;28;20568;-64
2024/01/04 04:21:53;;;;;;;7.28;2.58;;;13.30;52.60;;;;;;5014917;28;20120;-63
2024/01/04 04:24:23;;;;;;;21.27;3.58;;;13.30;53.10;;;;;;5007155;28;20060;-62
2024/01/04 04:26:52;;;;;;;7.68;2.55;;;13.30;52.50;;;;;;5012555;28;20114;-63
2024/01/04 04:29:20;;;;;;;4.63;2.03;;;13.30;52.50;;;;;;5013130;28;20068;-63
2024/01/04 04:31:49;;;;;;;4.85;2.17;;;13.30;52.50;;;;;;5018650;28;20057;-63
2024/01/04 04:34:16;;;;;;;17.98;2.80;;;13.30;52.50;;;;;;5006281;28;20053;-62
2024/01/04 04:36:45;;;;;;;10.98;2.80;;;13.30;52.50;;;;;;5008557;28;20068;-64
2024/01/04 04:39:13;;;;;;;6.65;2.72;;;13.30;52.50;;;;;;5012731;28;20057;-63
2024/01/04 04:41:43;;;;;;;13.38;4.35;;;13.30;52.40;;;;;;5013320;28;20050;-63
2024/01/04 04:44:11;;;;;;;17.00;8.05;;;13.30;52.40;;;;;;5015771;28;20057;-63
2024/01/04 04:46:40;;;;;;;24.75;4.35;;;13.40;52.50;;;;;;5012670;28;20049;-62
2024/01/04 04:49:08;;;;;;;12.40;4.05;;;13.40;52.50;;;;;;5018847;28;20138;-63
2024/01/04 04:51:36;;;;;;;5.80;2.80;;;13.50;52.50;;;;;;5013542;28;20045;-63
2024/01/04 04:54:04;;;;;;;13.10;2.50;;;13.60;52.50;;;;;;5010932;28;20063;-63
2024/01/04 04:56:33;;;;;;;5.63;2.33;;;13.60;52.40;;;;;;4996672;28;20053;-62
2024/01/04 04:59:05;;;;;;;14.60;3.83;;;13.60;52.40;;;;;;5022284;28;20155;-63
2024/01/04 05:01:33;;;;;;;43.00;3.75;;;13.60;52.30;;;;;;5021861;28;20057;-62
2024/01/04 05:04:01;;;;;;;11.45;3.20;;;13.70;52.40;;;;;;5017087;28;20073;-63
2024/01/04 05:06:30;;;;;;;6.65;2.40;;;13.70;52.30;;;;;;4999790;28;20155;-63
2024/01/04 05:08:59;;;;;;;22.27;2.78;;;13.80;52.30;;;;;;5016211;28;20059;-64
2024/01/04 05:11:27;;;;;;;9.45;3.80;;;13.80;52.20;;;;;;5011725;28;20068;-63
2024/01/04 05:13:55;;;;;;;4.75;1.70;;;13.80;52.10;;;;;;5021847;28;20056;-63
2024/01/04 05:16:25;;;;;;;5.38;2.00;;;13.80;52.00;;;;;;5011410;28;20102;-64
2024/01/04 05:18:53;;;;;;;4.80;2.50;;;13.70;52.00;;;;;;5018454;28;20092;-64
2024/01/04 05:21:22;;;;;;;10.00;3.03;;;13.70;52.00;;;;;;5014304;28;20162;-63
2024/01/04 05:23:50;;;;;;;7.70;2.72;;;13.60;52.20;;;;;;5020478;28;20061;-61
2024/01/04 05:26:21;;;;;;;8.23;2.78;;;13.60;52.30;;;;;;5004827;28;20049;-62
2024/01/04 05:28:49;;;;;;;5.38;1.63;;;13.50;52.40;;;;;;5014361;28;20068;-63
2024/01/04 05:31:20;;;;;;;6.03;2.40;;;13.60;52.50;;;;;;5006931;28;20188;-63
2024/01/04 05:33:50;;;;;;;5.82;2.63;;;13.60;52.50;;;;;;5018306;28;20057;-64
2024/01/04 05:36:18;;;;;;;14.27;2.85;;;13.60;52.40;;;;;;5007555;28;20068;-64
2024/01/04 05:38:47;;;;;;;5.85;2.47;;;13.60;52.40;;;;;;5008160;28;20065;-63
2024/01/04 05:41:15;;;;;;;3.55;1.60;;;13.60;52.30;;;;;;5009332;28;20057;-62
2024/01/04 05:43:44;;;;;;;2.67;1.33;;;13.60;52.30;;;;;;5017597;28;20052;-63
2024/01/04 05:46:12;;;;;;;1.65;0.82;;;13.60;52.40;;;;;;5012292;28;20404;-63
2024/01/04 05:48:40;;;;;;;3.45;1.00;;;13.60;52.50;;;;;;5012538;28;20164;-64
2024/01/04 05:51:10;;;;;;;0.82;0.50;;;13.60;52.80;;;;;;5011909;28;20065;-64
2024/01/04 05:53:39;;;;;;;0.30;0.30;;;13.50;52.80;;;;;;5010944;28;20058;-63
2024/01/04 05:56:07;;;;;;;0.50;0.50;;;13.50;53.00;;;;;;5024628;28;20048;-63
2024/01/04 05:58:35;;;;;;;0.88;0.65;;;13.50;53.10;;;;;;5015037;28;20132;-61
2024/01/04 06:01:04;;;;;;;1.38;0.70;;;13.50;53.60;;;;;;5014296;28;20593;-64
2024/01/04 06:03:33;;;;;;;8.18;0.70;;;13.50;53.70;;;;;;5010807;28;20056;-63
2024/01/04 06:06:01;;;;;;;2.65;1.20;;;13.50;53.70;;;;;;5013918;28;20519;-64
2024/01/04 06:08:31;;;;;;;4.03;0.80;;;13.50;53.70;;;;;;5011753;28;20061;-63
2024/01/04 06:11:00;;;;;;;0.88;0.85;;;13.50;53.70;;;;;;5015920;28;20064;-62
2024/01/04 06:13:28;;;;;;;0.32;0.32;;;13.50;53.70;;;;;;5009695;28;20535;-62
2024/01/04 06:15:56;;;;;;;3.22;0.57;;;13.30;53.80;;;;;;5010694;28;20517;-65
2024/01/04 06:18:25;;;;;;;0.65;0.55;;;13.30;53.90;;;;;;5007830;28;20139;-63
2024/01/04 06:20:54;;;;;;;0.75;0.57;;;13.20;53.90;;;;;;5003924;28;20448;-63
2024/01/04 06:23:22;;;;;;;0.40;0.40;;;13.10;54.00;;;;;;5010308;28;20077;-61
2024/01/04 06:25:52;;;;;;;0.60;0.50;;;13.10;54.10;;;;;;5007204;28;20058;-66
2024/01/04 06:28:21;;;;;;;1.48;0.60;;;13.00;54.20;;;;;;5002294;28;20110;-62
2024/01/04 06:30:49;;;;;;;0.63;0.63;;;13.00;54.30;;;;;;5012116;28;20053;-64
2024/01/04 06:33:18;;;;;;;0.73;0.55;;;13.00;54.30;;;;;;5002174;28;20093;-64
2024/01/04 06:35:46;;;;;;;5.05;0.73;;;13.00;54.30;;;;;;5026830;28;20073;-63
2024/01/04 06:38:15;;;;;;;2.47;0.70;;;13.00;54.30;;;;;;5010706;28;20065;-63
2024/01/04 06:40:43;;;;;;;0.73;0.60;;;13.00;55.00;;;;;;5006982;28;20076;-62
2024/01/04 06:43:13;;;;;;;0.45;0.45;;;13.10;54.30;;;;;;5019920;28;20060;-64
2024/01/04 06:45:41;;;;;;;0.50;0.50;;;13.10;54.30;;;;;;5013341;28;20132;-64
2024/01/04 06:48:09;;;;;;;1.08;0.73;;;13.10;54.30;;;;;;5005443;28;20053;-61
2024/01/04 06:50:38;;;;;;;2.38;0.70;;;13.10;54.90;;;;;;4999981;28;20616;-63
2024/01/04 06:53:06;;;;;;;1.92;0.82;;;13.20;54.20;;;;;;5008823;28;20054;-61
2024/01/04 06:55:34;;;;;;;1.05;0.70;;;13.20;54.10;;;;;;5017359;28;20754;-63
2024/01/04 06:58:04;;;;;;;4.88;0.63;;;13.20;54.00;;;;;;5010024;28;20107;-63
2024/01/04 07:00:33;;;;;;;1.02;0.60;;;13.20;53.90;;;;;;5000803;28;20438;-64
2024/01/04 07:03:02;;;;;;;1.92;1.00;;;13.20;53.90;;;;;;5019274;28;20061;-63
2024/01/04 07:05:31;;;;;;;2.35;0.80;;;13.20;53.90;;;;;;5025796;28;20455;-63
2024/01/04 07:08:00;;;;;;;1.73;0.68;;;13.30;53.90;;;;;;5005906;28;20195;-64
2024/01/04 07:10:28;;;;;;;0.88;0.80;;;13.30;53.80;;;;;;5001386;28;20058;-63
2024/01/04 07:12:57;;;;;;;3.40;0.80;;;13.40;54.40;;;;;;5005458;28;20080;-64
2024/01/04 07:15:26;;;;;;;1.38;0.70;;;13.40;53.70;;;;;;5016952;28;20491;-63
2024/01/04 07:17:56;;;;;;;2.03;1.00;;;13.50;53.70;;;;;;5005600;28;20065;-62
2024/01/04 07:20:24;;;;;;;1.85;1.73;;;13.50;53.70;;;;;;4996721;28;20065;-61
2024/01/04 07:22:53;;;;;;;2.60;0.65;;;13.50;53.60;;;;;;5023836;28;20517;-63
2024/01/04 07:25:23;;;;;;;1.95;0.88;;;13.50;53.60;;;;;;5017249;28;20137;-62
2024/01/04 07:27:52;;;;;;;5.07;1.27;;;13.60;53.60;;;;;;5019627;28;20143;-63
2024/01/04 07:30:20;;;;;;;8.98;1.50;;;13.60;53.60;;;;;;5011905;28;20057;-62
2024/01/04 07:32:49;;;;;;;6.82;1.60;;;13.70;53.60;;;;;;5018294;28;20046;-63
2024/01/04 07:35:23;;;;;;;2.50;1.17;;;13.70;53.60;;;;;;5016062;28;20404;-62
2024/01/04 07:37:51;;;;;;;1.00;0.90;;;13.80;53.50;;;;;;5011436;28;20061;-63
2024/01/04 07:40:20;;;;;;;8.57;1.00;;;13.80;54.10;;;;;;5010656;28;20146;-62
2024/01/04 07:42:49;;;;;;;1.67;1.05;;;13.80;53.50;;;;;;5026851;28;20572;-64
2024/01/04 07:45:17;;;;;;;0.60;0.60;;;13.90;53.50;;;;;;5022303;28;20100;-63
2024/01/04 07:47:46;;;;;;;3.63;1.48;;;14.00;53.40;;;;;;5011698;28;20065;-65
2024/01/04 07:50:14;;;;;;;5.90;0.90;;;14.20;53.50;;;;;;5030500;28;20057;-63
2024/01/04 07:52:46;;;;;;;0.60;0.60;;;14.30;53.40;;;;;;5021517;28;20060;-64
2024/01/04 07:55:15;;;;;;;0.30;0.30;;;14.40;53.30;;;;;;5020459;28;20141;-62
2024/01/04 07:57:43;;;;;;;0.40;0.40;;;14.40;53.00;;;;;;5022499;28;20045;-63
2024/01/04 08:00:13;;;;;;;3.97;0.75;;;14.50;53.00;;;;;;5016096;28;20061;-64
2024/01/04 08:02:41;;;;;;;1.27;0.55;;;14.60;52.80;;;;;;5013682;28;20029;-63
2024/01/04 08:05:13;;;;;;;1.17;0.40;;;14.70;52.80;;;;;;5019317;28;20069;-62
2024/01/04 08:07:44;;;;;;;1.33;0.73;;;14.70;52.70;;;;;;5009640;28;20640;-63
2024/01/04 08:10:12;;;;;;;0.65;0.50;;;14.70;52.60;;;;;;5012926;28;20050;-64
2024/01/04 08:12:41;;;;;;;4.10;0.90;;;14.80;52.60;;;;;;5010873;28;20134;-63
2024/01/04 08:15:11;;;;;;;0.55;0.47;;;14.80;52.50;;;;;;5013259;28;20169;-64
2024/01/04 08:17:40;;;;;;;1.73;0.70;;;14.80;52.50;;;;;;5014328;28;20128;-62
2024/01/04 08:20:10;;;;;;;4.57;1.67;;;14.80;52.50;;;;;;5015341;28;20085;-62
2024/01/04 08:22:38;;;;;;;2.95;1.10;;;14.80;52.50;;;;;;5006166;28;20116;-63
2024/01/04 08:25:09;;;;;;;1.92;0.85;;;14.80;52.50;;;;;;5014464;28;20123;-63
2024/01/04 08:27:37;;;;;;;2.40;1.63;;;14.70;52.40;;;;;;5021961;28;20057;-63
2024/01/04 08:30:07;;;;;;;0.50;0.50;;;14.70;52.40;;;;;;5016452;28;20599;-62
2024/01/04 08:32:35;;;;;;;2.35;0.70;;;14.80;52.40;;;;;;5005523;28;20133;-63
2024/01/04 08:35:04;;;;;;;6.60;1.02;;;14.80;52.30;;;;;;5019208;28;20119;-63
2024/01/04 08:37:33;;;;;;;7.82;3.30;;;14.90;52.30;;;;;;5006121;28;20079;-62
2024/01/04 08:40:02;;;;;;;2.58;1.20;;;14.90;52.30;;;;;;5006062;28;20675;-61
2024/01/04 08:42:31;;;;;;;2.03;1.02;;;14.90;52.20;;;;;;4996915;28;20060;-62
2024/01/04 08:45:00;;;;;;;6.90;1.50;;;14.90;52.10;;;;;;5016966;28;20056;-62
2024/01/04 08:47:28;;;;;;;1.00;0.70;;;15.00;52.20;;;;;;5014597;28;20115;-61
2024/01/04 08:50:00;;;;;;;11.20;1.10;;;15.00;52.10;;;;;;5012491;28;20067;-63
2024/01/04 08:52:30;;;;;;;5.95;1.15;;;15.00;51.90;;;;;;5007763;28;20111;-63
2024/01/04 08:54:59;;;;;;;4.38;1.35;;;15.10;52.00;;;;;;5004991;28;20077;-63
2024/01/04 08:57:27;;;;;;;5.07;1.40;;;15.10;51.90;;;;;;5024726;28;20061;-62
2024/01/04 08:59:57;;;;;;;2.88;1.08;;;15.10;51.80;;;;;;5011367;28;20056;-63
2024/01/04 09:02:27;;;;;;;4.80;1.90;;;15.20;51.80;;;;;;5008434;28;20870;-62
2024/01/04 09:04:56;;;;;;;2.03;1.13;;;15.30;51.80;;;;;;5013587;28;20057;-62
2024/01/04 09:07:26;;;;;;;5.47;1.63;;;15.30;51.70;;;;;;5034731;28;20064;-63
2024/01/04 09:09:55;;;;;;;3.75;1.30;;;15.30;51.60;;;;;;5012182;28;20057;-63
2024/01/04 09:12:24;;;;;;;7.43;1.27;;;15.30;51.50;;;;;;5021509;28;20123;-63
2024/01/04 09:14:53;;;;;;;6.10;1.70;;;15.30;51.60;;;;;;5026298;28;20064;-61
2024/01/04 09:17:23;;;;;;;5.07;2.00;;;15.40;51.50;;;;;;5008902;28;20705;-64
2024/01/04 09:19:51;;;;;;;2.03;1.13;;;15.40;51.40;;;;;;5013134;28;20064;-64
2024/01/04 09:22:21;;;;;;;20.02;3.13;;;15.50;51.30;;;;;;5005644;28;20054;-64
2024/01/04 09:24:49;;;;;;;10.05;4.53;;;15.60;51.30;;;;;;5015286;28;20053;-63
2024/01/04 09:27:19;;;;;;;1.95;0.70;;;15.60;51.20;;;;;;5012026;28;20175;-63
2024/01/04 09:29:48;;;;;;;6.60;1.80;;;15.60;51.10;;;;;;5024814;28;20065;-63
2024/01/04 09:32:16;;;;;;;25.70;2.30;;;15.60;51.10;;;;;;5024365;28;20045;-63
2024/01/04 09:34:46;;;;;;;6.40;1.23;;;15.60;51.10;;;;;;4998995;28;20053;-63
2024/01/04 09:37:14;;;;;;;10.60;1.35;;;15.60;51.00;;;;;;5002138;28;20159;-64
2024/01/04 09:39:42;;;;;;;1.38;0.68;;;15.60;51.00;;;;;;5007987;28;20080;-63
2024/01/04 09:42:13;;;;;;;3.25;0.70;;;15.70;50.90;;;;;;5009371;28;20069;-63
2024/01/04 09:44:43;;;;;;;5.45;1.33;;;15.70;50.90;;;;;;5016885;28;20041;-64
2024/01/04 09:47:15;;;;;;;3.92;1.40;;;15.70;51.50;;;;;;5021235;28;20578;-63
2024/01/04 09:49:46;;;;;;;12.63;1.88;;;15.70;50.70;;;;;;5010512;28;20385;-65
2024/01/04 09:52:16;;;;;;;5.68;2.00;;;15.70;50.70;;;;;;5012330;28;20068;-62
2024/01/04 09:54:47;;;;;;;4.13;1.02;;;15.70;50.60;;;;;;4997217;28;20069;-64
2024/01/04 09:57:15;;;;;;;10.07;1.10;;;15.70;50.50;;;;;;5016025;28;20419;-63
2024/01/04 09:59:44;;;;;;;6.90;0.90;;;15.80;50.50;;;;;;5013425;28;20061;-62
2024/01/04 10:02:14;;;;;;;4.65;1.00;;;15.80;50.50;;;;;;5019049;28;20072;-62
2024/01/04 10:04:44;;;;;;;1.52;0.70;;;15.90;50.40;;;;;;5005891;28;20053;-63
2024/01/04 10:07:20;;;;;;;13.02;1.25;;;15.90;50.30;;;;;;5017828;28;20153;-63
2024/01/04 10:09:57;;;;;;;1.50;0.55;;;16.00;50.20;;;;;;5013447;28;20064;-62
2024/01/04 10:12:32;;;;;;;3.47;0.60;;;16.00;50.00;;;;;;5002315;28;20103;-63
2024/01/04 10:15:01;;;;;;;4.68;1.13;;;16.00;50.00;;;;;;5006793;28;20060;-63
2024/01/04 10:17:32;;;;;;;8.43;2.55;;;15.90;50.10;;;;;;5010160;28;20081;-64
2024/01/04 10:20:04;;;;;;;9.70;2.45;;;15.90;50.80;;;;;;5010163;28;20054;-63
2024/01/04 10:22:32;;;;;;;2.97;1.60;;;15.90;50.10;;;;;;5003027;28;20817;-62
2024/01/04 10:25:07;;;;;;;5.63;1.50;;;16.00;50.10;;;;;;5021273;28;20641;-63
2024/01/04 10:27:36;;;;;;;4.78;1.23;;;16.10;50.00;;;;;;5010961;28;20065;-63
2024/01/04 10:30:06;;;;;;;9.68;2.03;;;16.20;49.90;;;;;;5008249;28;20187;-63
2024/01/04 10:32:34;;;;;;;8.13;1.75;;;16.30;49.80;;;;;;4995891;28;20531;-64
2024/01/04 10:35:09;;;;;;;6.75;1.83;;;16.40;49.70;;;;;;5014683;28;20061;-64
2024/01/04 10:37:38;;;;;;;4.95;1.80;;;16.50;49.50;;;;;;5006263;28;20046;-64
2024/01/04 10:40:09;;;;;;;11.27;3.20;;;16.60;49.40;;;;;;5016284;28;20370;-63
2024/01/04 10:42:38;;;;;;;7.13;1.65;;;16.70;49.30;;;;;;5017705;28;20088;-62
2024/01/04 10:45:10;;;;;;;11.90;1.08;;;16.90;49.30;;;;;;5014613;28;20061;-66
2024/01/04 10:47:40;;;;;;;3.58;1.50;;;17.10;49.10;;;;;;5008788;28;20095;-63
2024/01/04 10:50:12;;;;;;;3.97;1.40;;;17.20;49.00;;;;;;5012279;28;20115;-63
2024/01/04 10:52:44;;;;;;;8.23;2.10;;;17.30;48.70;;;;;;5002067;28;20483;-64
2024/01/04 10:55:14;;;;;;;6.55;2.10;;;17.30;48.50;;;;;;5009692;28;20303;-64
2024/01/04 10:57:44;;;;;;;5.60;1.63;;;17.20;48.40;;;;;;5004291;28;20061;-62
2024/01/04 11:00:14;;;;;;;8.40;1.27;;;17.20;48.30;;;;;;5012426;28;20050;-63
2024/01/04 11:02:44;;;;;;;2.15;1.50;;;17.10;48.30;;;;;;5023526;28;20046;-63
2024/01/04 11:05:14;;;;;;;2.20;1.10;;;17.00;48.90;;;;;;5014045;28;20556;-64
2024/01/04 11:07:43;;;;;;;15.57;1.10;;;17.00;48.30;;;;;;5011225;28;20060;-64
2024/01/04 11:10:13;;;;;;;10.32;1.42;;;16.90;48.20;;;;;;5015647;28;20087;-63
2024/01/04 11:12:42;;;;;;;6.65;1.85;;;16.90;48.20;;;;;;5007144;28;20495;-63
2024/01/04 11:15:14;;;;;;;14.93;2.55;;;16.90;48.20;;;;;;5013895;28;20065;-62
2024/01/04 11:17:59;;;;;;;7.03;1.80;;;16.90;48.20;;;;;;5011374;28;20483;-63
2024/01/04 11:20:43;;;;;;;8.20;1.70;;;16.80;48.30;;;;;;5007047;28;20058;-63
2024/01/04 11:23:35;;;;;;;12.32;1.38;;;16.90;48.10;;;;;;5014265;28;20357;-62
2024/01/04 11:26:23;;;;;;;5.72;0.70;;;16.80;48.00;;;;;;5011735;28;20053;-63
2024/01/04 11:28:55;;;;;;;5.07;2.40;;;16.90;48.20;;;;;;5016513;28;20061;-64
2024/01/04 11:31:25;;;;;;;1.88;1.10;;;17.00;48.20;;;;;;5015550;28;20076;-63
2024/01/04 11:33:54;;;;;;;18.08;1.63;;;17.10;48.20;;;;;;5010060;28;20067;-63
2024/01/04 11:36:30;;;;;;;2.85;0.85;;;17.20;47.90;;;;;;5022204;28;20044;-62
2024/01/04 11:39:00;;;;;;;;;;;17.40;47.80;;;;;;5007535;28;20157;-65
2024/01/04 11:41:34;;;;;;;23.20;1.10;;;17.60;48.00;;;;;;5025780;28;20345;-63
2024/01/04 11:44:06;;;;;;;10.23;0.98;;;17.70;47.70;;;;;;5032931;28;20146;-65
2024/01/04 11:46:35;;;;;;;2.28;1.13;;;17.60;47.50;;;;;;5017608;28;20056;-63
2024/01/04 11:49:06;;;;;;;3.17;1.00;;;17.40;47.40;;;;;;5025379;28;20115;-63
2024/01/04 11:51:44;;;;;;;29.33;1.77;;;17.20;47.40;;;;;;5015845;28;20073;-64
2024/01/04 11:54:15;;;;;;;5.68;1.80;;;17.10;47.50;;;;;;5022530;28;20056;-62
2024/01/04 11:56:45;;;;;;;1.05;1.00;;;16.90;48.30;;;;;;5010858;28;20639;-65
2024/01/04 11:59:17;;;;;;;10.38;0.82;;;16.90;47.80;;;;;;5019676;28;20072;-64
2024/01/04 12:01:49;;;;;;;3.50;2.20;;;16.90;47.80;;;;;;5017832;28;20057;-65
2024/01/04 12:04:19;;;;;;;11.77;1.67;;;17.00;47.90;;;;;;5023115;28;20053;-66
2024/01/04 12:06:56;;;;;;;2.60;0.70;;;17.10;47.80;;;;;;5018609;28;20049;-64
2024/01/04 12:09:27;;;;;;;2.50;0.90;;;17.30;47.60;;;;;;5017709;28;20141;-64
2024/01/04 12:11:57;;;;;;;5.70;1.15;;;17.40;47.20;;;;;;5031378;28;20099;-65
2024/01/04 12:14:28;;;;;;;12.98;1.83;;;17.40;47.00;;;;;;5011981;28;20045;-62
2024/01/04 12:17:03;;;;;;;7.53;1.92;;;17.30;47.10;;;;;;5005758;28;20053;-67
2024/01/04 12:19:32;;;;;;;1.75;1.05;;;17.40;47.20;;;;;;5028658;28;20546;-65
2024/01/04 12:22:03;;;;;;;9.27;1.50;;;17.40;46.90;;;;;;5016634;28;20559;-64
2024/01/04 12:24:34;;;;;;;6.03;2.30;;;17.40;46.80;;;;;;5008159;28;21334;-64
2024/01/04 12:27:03;;;;;;;4.97;1.40;;;17.20;46.60;;;;;;5012892;28;20420;-64
2024/01/04 12:29:32;;;;;;;1.65;0.70;;;17.10;46.60;;;;;;5016758;28;20064;-64
2024/01/04 12:32:05;;;;;;;1.55;0.75;;;16.90;46.60;;;;;;5010660;28;20061;-63
2024/01/04 12:34:34;;;;;;;1.15;0.70;;;16.90;46.70;;;;;;5008582;28;20052;-63
2024/01/04 12:37:07;;;;;;;4.88;1.40;;;16.90;46.80;;;;;;5020439;28;20060;-63
2024/01/04 12:39:36;;;;;;;5.35;1.45;;;17.00;46.80;;;;;;5011411;28;20064;-62
2024/01/04 12:42:05;;;;;;;7.13;0.70;;;17.00;46.70;;;;;;5035839;28;20088;-62
2024/01/04 12:44:33;;;;;;;6.13;0.93;;;17.10;46.70;;;;;;5006428;28;20088;-64
2024/01/04 12:47:05;;;;;;;3.85;1.00;;;17.20;46.60;;;;;;5013316;28;20064;-63
2024/01/04 12:49:34;;;;;;;0.88;0.68;;;17.30;46.50;;;;;;5020318;28;20095;-64
2024/01/04 12:52:12;;;;;;;2.60;0.85;;;17.40;46.40;;;;;;5024006;28;20164;-63
2024/01/04 12:54:41;;;;;;;3.08;0.80;;;17.30;46.10;;;;;;5000796;28;20056;-62
2024/01/04 12:57:09;;;;;;;1.75;1.20;;;17.30;46.10;;;;;;5021857;28;20063;-62